createdAt,value
2019-04-30T00:01:17.019Z,20.10
2019-04-30T00:03:55.737Z,21.27
2019-04-30T00:06:27.278Z,20.02
2019-04-30T00:08:57.588Z,20.60
2019-04-30T00:11:26.881Z,23.25
2019-04-30T00:13:58.813Z,20.43
2019-04-30T00:16:31.116Z,19.10
2019-04-30T00:19:00.888Z,25.25
2019-04-30T00:21:30.871Z,20.97
2019-04-30T00:24:04.940Z,21.40
2019-04-30T00:26:32.026Z,21.42
2019-04-30T00:29:01.725Z,19.12
2019-04-30T00:31:31.487Z,22.82
2019-04-30T00:34:01.504Z,22.45
2019-04-30T00:36:34.031Z,21.97
2019-04-30T00:39:09.026Z,21.05
2019-04-30T00:41:39.852Z,20.60
2019-04-30T00:44:08.351Z,18.42
2019-04-30T00:46:38.109Z,21.12
2019-04-30T00:49:09.800Z,18.10
2019-04-30T00:51:39.257Z,23.45
2019-04-30T00:54:09.049Z,21.90
2019-04-30T00:56:38.737Z,20.15
2019-04-30T00:59:10.421Z,20.17
2019-04-30T01:02:02.123Z,20.72
2019-04-30T01:04:44.987Z,19.85
2019-04-30T01:07:16.303Z,18.55
2019-04-30T01:09:49.398Z,21.15
2019-04-30T01:12:24.592Z,20.50
2019-04-30T01:14:49.759Z,18.87
2019-04-30T01:17:19.567Z,20.25
2019-04-30T01:19:51.175Z,22.95
2019-04-30T01:22:27.718Z,22.40
2019-04-30T01:24:52.470Z,19.57
2019-04-30T01:27:23.366Z,19.67
2019-04-30T01:29:53.321Z,17.77
2019-04-30T01:32:24.229Z,24.27
2019-04-30T01:34:54.125Z,20.00
2019-04-30T01:37:28.648Z,21.87
2019-04-30T01:39:55.346Z,18.60
2019-04-30T01:42:26.173Z,19.80
2019-04-30T01:44:55.881Z,18.37
2019-04-30T01:47:27.798Z,16.35
2019-04-30T01:50:03.048Z,18.45
2019-04-30T01:52:49.345Z,21.50
2019-04-30T01:55:20.859Z,20.97
2019-04-30T01:58:08.726Z,21.05
2019-04-30T02:00:51.189Z,20.45
2019-04-30T02:03:20.937Z,16.75
2019-04-30T02:05:50.728Z,20.70
2019-04-30T02:08:20.412Z,22.30
2019-04-30T02:10:51.340Z,16.90
2019-04-30T02:13:21.350Z,18.85
2019-04-30T02:15:51.180Z,20.97
2019-04-30T02:18:20.965Z,21.62
2019-04-30T02:20:50.661Z,19.42
2019-04-30T02:23:20.490Z,18.10
2019-04-30T02:25:50.180Z,20.68
2019-04-30T02:28:19.866Z,17.05
2019-04-30T02:30:50.393Z,21.37
2019-04-30T02:33:20.872Z,20.27
2019-04-30T02:36:13.259Z,16.10
2019-04-30T02:39:02.265Z,20.68
2019-04-30T02:41:29.496Z,18.30
2019-04-30T02:44:00.711Z,18.10
2019-04-30T02:46:32.336Z,20.77
2019-04-30T02:49:03.644Z,16.23
2019-04-30T02:51:34.961Z,17.55
2019-04-30T02:54:20.334Z,17.35
2019-04-30T02:56:56.432Z,18.50
2019-04-30T02:59:26.118Z,17.87
2019-04-30T03:01:55.883Z,17.82
2019-04-30T03:04:25.585Z,17.60
2019-04-30T03:06:55.298Z,13.62
2019-04-30T03:09:24.981Z,19.10
2019-04-30T03:11:54.691Z,19.92
2019-04-30T03:14:24.361Z,20.20
2019-04-30T03:17:10.230Z,17.90
2019-04-30T03:19:50.033Z,18.75
2019-04-30T03:22:20.652Z,19.40
2019-04-30T03:24:50.433Z,18.10
2019-04-30T03:27:21.953Z,16.55
2019-04-30T03:29:51.610Z,16.57
2019-04-30T03:32:22.622Z,19.30
2019-04-30T03:34:52.584Z,21.33
2019-04-30T03:37:22.276Z,20.45
2019-04-30T03:39:51.953Z,19.23
2019-04-30T03:42:21.663Z,19.37
2019-04-30T03:44:51.352Z,19.20
2019-04-30T03:47:21.047Z,17.27
2019-04-30T03:49:50.736Z,17.85
2019-04-30T03:52:20.417Z,20.15
2019-04-30T03:54:50.122Z,23.12
2019-04-30T03:57:20.453Z,21.23
2019-04-30T03:59:50.482Z,19.60
2019-04-30T04:02:30.058Z,17.10
2019-04-30T04:05:24.583Z,21.97
2019-04-30T04:08:02.107Z,17.02
2019-04-30T04:10:40.417Z,16.47
2019-04-30T04:13:10.437Z,21.85
2019-04-30T04:15:40.354Z,15.88
2019-04-30T04:18:10.857Z,20.37
2019-04-30T04:20:42.926Z,17.80
2019-04-30T04:23:12.173Z,18.35
2019-04-30T04:25:41.879Z,18.60
2019-04-30T04:28:11.555Z,20.12
2019-04-30T04:30:43.034Z,20.85
2019-04-30T04:33:12.961Z,18.55
2019-04-30T04:35:42.653Z,18.73
2019-04-30T04:38:12.838Z,16.00
2019-04-30T04:40:43.666Z,19.23
2019-04-30T04:43:13.423Z,18.95
2019-04-30T04:45:43.774Z,17.82
2019-04-30T04:48:13.713Z,16.20
2019-04-30T04:50:43.486Z,20.52
2019-04-30T04:53:13.177Z,21.48
2019-04-30T04:55:42.940Z,17.70
2019-04-30T04:58:13.038Z,23.57
2019-04-30T05:00:42.917Z,22.52
2019-04-30T05:03:39.727Z,22.17
2019-04-30T05:06:11.421Z,25.82
2019-04-30T05:08:40.354Z,20.72
2019-04-30T05:11:10.133Z,22.67
2019-04-30T05:13:39.919Z,24.32
2019-04-30T05:16:09.681Z,22.10
2019-04-30T05:18:39.361Z,23.10
2019-04-30T05:21:09.060Z,21.57
2019-04-30T05:23:42.494Z,20.55
2019-04-30T05:26:11.253Z,20.57
2019-04-30T05:28:41.089Z,23.25
2019-04-30T05:31:10.897Z,23.27
2019-04-30T05:33:40.575Z,20.72
2019-04-30T05:36:10.285Z,23.40
2019-04-30T05:38:39.982Z,24.87
2019-04-30T05:41:09.680Z,21.48
2019-04-30T05:43:39.361Z,26.52
2019-04-30T05:46:11.037Z,26.62
2019-04-30T05:48:40.441Z,26.68
2019-04-30T05:51:10.133Z,24.67
2019-04-30T05:53:39.820Z,28.50
2019-04-30T05:56:09.621Z,28.65
2019-04-30T05:58:39.816Z,26.65
2019-04-30T06:01:09.943Z,26.57
2019-04-30T06:03:39.772Z,28.40
2019-04-30T06:06:11.480Z,27.48
2019-04-30T06:08:50.294Z,28.80
2019-04-30T06:11:39.387Z,28.70
2019-04-30T06:14:30.080Z,27.55
2019-04-30T06:17:09.712Z,27.93
2019-04-30T06:19:39.913Z,27.15
2019-04-30T06:22:10.927Z,26.45
2019-04-30T06:24:41.149Z,25.82
2019-04-30T06:27:11.065Z,24.40
2019-04-30T06:29:41.137Z,31.70
2019-04-30T06:32:12.251Z,27.60
2019-04-30T06:34:42.712Z,28.67
2019-04-30T06:37:12.530Z,24.87
2019-04-30T06:39:42.310Z,21.85
2019-04-30T06:42:13.081Z,26.57
2019-04-30T06:44:44.245Z,26.48
2019-04-30T06:47:14.270Z,23.95
2019-04-30T06:49:44.321Z,23.90
2019-04-30T06:52:20.716Z,20.10
2019-04-30T06:54:45.545Z,19.55
2019-04-30T06:57:15.318Z,23.80
2019-04-30T06:59:45.084Z,22.30
2019-04-30T07:02:14.766Z,22.82
2019-04-30T07:04:44.536Z,20.65
2019-04-30T07:07:18.603Z,21.57
2019-04-30T07:09:58.254Z,23.15
2019-04-30T07:12:41.513Z,18.05
2019-04-30T07:15:13.666Z,19.87
2019-04-30T07:17:42.882Z,18.57
2019-04-30T07:20:12.577Z,16.45
2019-04-30T07:22:49.730Z,17.67
2019-04-30T07:25:13.718Z,23.07
2019-04-30T07:27:43.469Z,19.48
2019-04-30T07:30:13.458Z,18.62
2019-04-30T07:32:43.180Z,19.30
2019-04-30T07:35:13.147Z,19.25
2019-04-30T07:37:42.949Z,17.65
2019-04-30T07:40:13.056Z,18.87
2019-04-30T07:42:45.066Z,17.95
2019-04-30T07:45:14.637Z,17.52
2019-04-30T07:47:45.332Z,17.25
2019-04-30T07:50:15.989Z,17.50
2019-04-30T07:52:58.885Z,15.43
2019-04-30T07:55:19.431Z,14.58
2019-04-30T07:57:50.638Z,15.08
2019-04-30T08:00:20.388Z,14.63
2019-04-30T08:03:05.795Z,16.45
2019-04-30T08:05:40.292Z,14.70
2019-04-30T08:08:21.023Z,15.90
2019-04-30T08:10:41.578Z,13.08
2019-04-30T08:13:14.924Z,16.95
2019-04-30T08:15:42.741Z,14.95
2019-04-30T08:18:12.495Z,16.25
2019-04-30T08:20:42.209Z,15.80
2019-04-30T08:23:17.352Z,19.50
2019-04-30T08:25:43.438Z,13.32
2019-04-30T08:28:13.320Z,15.48
2019-04-30T08:30:43.016Z,17.25
2019-04-30T08:33:12.771Z,14.45
2019-04-30T08:35:42.443Z,15.63
2019-04-30T08:38:12.280Z,14.53
2019-04-30T08:40:53.350Z,13.20
2019-04-30T08:43:14.321Z,14.75
2019-04-30T08:45:44.182Z,15.28
2019-04-30T08:48:14.024Z,15.95
2019-04-30T08:50:43.703Z,14.47
2019-04-30T08:53:26.026Z,14.20
2019-04-30T08:55:46.065Z,13.53
2019-04-30T08:58:15.760Z,13.40
2019-04-30T09:00:45.425Z,13.75
2019-04-30T09:03:15.121Z,13.55
2019-04-30T09:06:00.815Z,16.30
2019-04-30T09:08:30.641Z,13.78
2019-04-30T09:11:00.321Z,12.90
2019-04-30T09:13:30.117Z,14.10
2019-04-30T09:15:59.946Z,14.35
2019-04-30T09:18:29.632Z,13.60
2019-04-30T09:21:06.025Z,16.25
2019-04-30T09:23:44.102Z,14.53
2019-04-30T09:26:03.392Z,13.83
2019-04-30T09:28:33.097Z,15.90
2019-04-30T09:31:02.772Z,13.80
2019-04-30T09:33:32.482Z,16.05
2019-04-30T09:36:02.350Z,13.60
2019-04-30T09:38:32.030Z,14.58
2019-04-30T09:41:01.722Z,13.20
2019-04-30T09:43:32.477Z,15.03
2019-04-30T09:46:02.357Z,15.40
2019-04-30T09:48:32.129Z,13.98
2019-04-30T09:51:02.223Z,16.20
2019-04-30T09:53:32.521Z,13.00
2019-04-30T09:56:02.447Z,12.15
2019-04-30T09:58:32.115Z,13.38
2019-04-30T10:01:01.804Z,15.75
2019-04-30T10:03:32.254Z,17.25
2019-04-30T10:06:02.808Z,13.48
2019-04-30T10:08:32.540Z,17.60
2019-04-30T10:11:27.591Z,13.50
2019-04-30T10:13:57.261Z,12.55
2019-04-30T10:16:39.600Z,12.18
2019-04-30T10:19:10.247Z,14.10
2019-04-30T10:21:40.165Z,14.87
2019-04-30T10:24:15.322Z,13.50
2019-04-30T10:26:41.544Z,13.93
2019-04-30T10:29:11.377Z,15.05
2019-04-30T10:31:41.073Z,18.27
2019-04-30T10:34:10.760Z,13.10
2019-04-30T10:36:41.443Z,15.45
2019-04-30T10:39:11.573Z,15.15
2019-04-30T10:41:41.325Z,13.98
2019-04-30T10:44:12.137Z,12.80
2019-04-30T10:46:41.906Z,12.15
2019-04-30T10:49:11.747Z,15.88
2019-04-30T10:51:41.429Z,15.80
2019-04-30T10:54:23.265Z,16.57
2019-04-30T10:56:42.785Z,14.87
2019-04-30T10:59:12.561Z,15.08
2019-04-30T11:01:42.481Z,14.05
2019-04-30T11:04:13.604Z,17.37
2019-04-30T11:06:43.393Z,16.97
2019-04-30T11:09:13.220Z,14.00
2019-04-30T11:11:43.137Z,17.82
2019-04-30T11:14:12.954Z,12.05
2019-04-30T11:16:42.712Z,15.85
2019-04-30T11:19:12.691Z,16.65
2019-04-30T11:21:42.617Z,15.83
2019-04-30T11:24:12.645Z,15.98
2019-04-30T11:26:43.351Z,15.90
2019-04-30T11:29:13.615Z,14.43
2019-04-30T11:32:07.740Z,15.15
2019-04-30T11:34:37.658Z,15.35
2019-04-30T11:37:07.497Z,13.08
2019-04-30T11:39:37.176Z,16.25
2019-04-30T11:42:06.980Z,14.55
2019-04-30T11:44:38.688Z,12.60
2019-04-30T11:47:25.721Z,13.60
2019-04-30T11:49:55.544Z,12.90
2019-04-30T11:52:25.445Z,14.60
2019-04-30T11:54:55.193Z,12.13
2019-04-30T11:57:26.027Z,13.50
2019-04-30T11:59:55.774Z,14.47
2019-04-30T12:02:39.333Z,14.53
2019-04-30T12:05:10.594Z,14.70
2019-04-30T12:08:01.881Z,13.45
2019-04-30T12:10:45.765Z,11.33
2019-04-30T12:13:25.842Z,16.48
2019-04-30T12:15:55.962Z,11.12
2019-04-30T12:18:25.801Z,12.95
2019-04-30T12:20:55.633Z,13.20
2019-04-30T12:23:25.409Z,13.60
2019-04-30T12:25:55.104Z,15.58
2019-04-30T12:28:27.239Z,17.75
2019-04-30T12:30:56.293Z,16.40
2019-04-30T12:33:26.048Z,15.85
2019-04-30T12:35:55.801Z,16.82
2019-04-30T12:38:25.498Z,17.55
2019-04-30T12:40:55.193Z,14.98
2019-04-30T12:43:24.893Z,15.55
2019-04-30T12:46:02.590Z,15.78
2019-04-30T12:48:36.000Z,13.80
2019-04-30T12:51:24.845Z,14.18
2019-04-30T12:53:58.613Z,16.02
2019-04-30T12:56:47.418Z,15.95
2019-04-30T12:59:17.158Z,16.27
2019-04-30T13:01:49.452Z,13.83
2019-04-30T13:04:19.376Z,15.58
2019-04-30T13:06:49.853Z,14.90
2019-04-30T13:09:20.806Z,14.35
2019-04-30T13:11:51.868Z,18.42
2019-04-30T13:14:22.595Z,16.80
2019-04-30T13:16:52.828Z,14.55
2019-04-30T13:19:22.499Z,15.75
2019-04-30T13:21:52.273Z,16.17
2019-04-30T13:24:22.161Z,16.30
2019-04-30T13:26:51.951Z,19.52
2019-04-30T13:29:28.877Z,14.95
2019-04-30T13:31:58.654Z,13.20
2019-04-30T13:34:54.181Z,14.87
2019-04-30T13:37:23.868Z,23.35
2019-04-30T13:40:06.088Z,14.25
2019-04-30T13:42:44.980Z,16.85
2019-04-30T13:45:14.811Z,15.90
2019-04-30T13:47:44.516Z,15.40
2019-04-30T13:50:14.443Z,15.58
2019-04-30T13:52:44.210Z,14.05
2019-04-30T13:55:14.050Z,18.45
2019-04-30T13:57:43.756Z,16.30
2019-04-30T14:00:18.594Z,15.60
2019-04-30T14:02:53.742Z,16.60
2019-04-30T14:05:23.499Z,16.00
2019-04-30T14:08:09.570Z,15.88
2019-04-30T14:10:41.881Z,13.45
2019-04-30T14:13:12.256Z,18.37
2019-04-30T14:15:42.072Z,14.38
2019-04-30T14:18:11.861Z,16.62
2019-04-30T14:20:41.622Z,18.17
2019-04-30T14:23:11.307Z,15.50
2019-04-30T14:25:40.984Z,14.70
2019-04-30T14:28:10.683Z,16.77
2019-04-30T14:30:40.625Z,16.07
2019-04-30T14:33:22.710Z,13.25
2019-04-30T14:35:41.761Z,13.25
2019-04-30T14:38:11.608Z,13.95
2019-04-30T14:40:41.745Z,15.58
2019-04-30T14:43:20.563Z,17.15
2019-04-30T14:46:16.218Z,15.78
2019-04-30T14:48:50.968Z,12.73
2019-04-30T14:51:20.674Z,19.75
2019-04-30T14:54:03.363Z,15.08
2019-04-30T14:56:39.427Z,14.58
2019-04-30T14:59:42.601Z,14.20
2019-04-30T15:02:22.818Z,16.75
2019-04-30T15:04:52.567Z,13.22
2019-04-30T15:07:22.272Z,12.33
2019-04-30T15:09:52.109Z,16.80
2019-04-30T15:12:21.941Z,15.63
2019-04-30T15:14:51.625Z,14.23
2019-04-30T15:17:21.381Z,18.77
2019-04-30T15:19:54.231Z,14.20
2019-04-30T15:22:22.606Z,12.18
2019-04-30T15:24:52.442Z,15.70
2019-04-30T15:27:22.118Z,14.40
2019-04-30T15:29:57.153Z,14.23
2019-04-30T15:32:23.253Z,15.25
2019-04-30T15:34:52.953Z,13.10
2019-04-30T15:37:24.129Z,13.05
2019-04-30T15:39:53.997Z,13.00
2019-04-30T15:42:23.816Z,10.75
2019-04-30T15:44:53.516Z,12.15
2019-04-30T15:47:23.457Z,11.70
2019-04-30T15:49:53.230Z,9.08
2019-04-30T15:52:23.052Z,9.75
2019-04-30T15:54:52.760Z,10.35
2019-04-30T15:57:22.460Z,10.03
2019-04-30T15:59:52.183Z,15.83
2019-04-30T16:02:52.956Z,12.70
2019-04-30T16:05:33.728Z,11.83
2019-04-30T16:08:10.217Z,12.55
2019-04-30T16:11:00.467Z,12.58
2019-04-30T16:13:34.053Z,13.35
2019-04-30T16:16:04.169Z,12.78
2019-04-30T16:18:44.472Z,11.68
2019-04-30T16:21:14.175Z,12.47
2019-04-30T16:23:43.909Z,14.15
2019-04-30T16:26:13.680Z,11.43
2019-04-30T16:28:43.436Z,14.28
2019-04-30T16:31:13.457Z,18.48
2019-04-30T16:33:43.203Z,10.40
2019-04-30T16:36:12.888Z,12.45
2019-04-30T16:38:42.714Z,13.72
2019-04-30T16:41:12.405Z,12.65
2019-04-30T16:43:44.114Z,12.88
2019-04-30T16:46:13.605Z,12.10
2019-04-30T16:48:43.357Z,11.30
2019-04-30T16:51:13.133Z,10.63
2019-04-30T16:53:42.808Z,12.70
2019-04-30T16:56:12.508Z,11.10
2019-04-30T16:59:01.568Z,11.65
2019-04-30T17:01:32.808Z,12.03
2019-04-30T17:04:13.915Z,12.63
2019-04-30T17:06:49.232Z,10.75
2019-04-30T17:09:26.137Z,9.23
2019-04-30T17:12:11.581Z,12.35
2019-04-30T17:14:42.201Z,11.05
2019-04-30T17:17:12.091Z,14.80
2019-04-30T17:19:41.775Z,16.20
2019-04-30T17:22:11.456Z,12.23
2019-04-30T17:24:41.149Z,15.88
2019-04-30T17:27:19.332Z,10.72
2019-04-30T17:29:42.270Z,11.00
2019-04-30T17:32:12.037Z,10.48
2019-04-30T17:34:41.724Z,12.37
2019-04-30T17:37:11.493Z,14.78
2019-04-30T17:39:41.213Z,12.25
2019-04-30T17:42:11.089Z,11.65
2019-04-30T17:44:40.781Z,10.63
2019-04-30T17:47:10.480Z,11.73
2019-04-30T17:49:40.172Z,14.68
2019-04-30T17:52:10.097Z,12.65
2019-04-30T17:54:39.876Z,10.93
2019-04-30T17:57:10.664Z,14.78
2019-04-30T17:59:40.520Z,14.78
2019-04-30T18:02:11.905Z,17.50
2019-04-30T18:04:41.827Z,15.80
2019-04-30T18:07:11.508Z,22.75
2019-04-30T18:09:41.278Z,12.00
2019-04-30T18:12:11.028Z,12.75
2019-04-30T18:14:40.797Z,13.25
2019-04-30T18:17:10.628Z,12.10
2019-04-30T18:19:46.640Z,10.85
2019-04-30T18:22:25.558Z,14.30
2019-04-30T18:25:08.402Z,12.85
2019-04-30T18:27:46.216Z,10.08
2019-04-30T18:30:19.042Z,11.65
2019-04-30T18:32:49.486Z,11.97
2019-04-30T18:35:20.457Z,14.45
2019-04-30T18:37:50.284Z,10.60
2019-04-30T18:40:20.045Z,10.28
2019-04-30T18:42:53.086Z,12.37
2019-04-30T18:45:23.051Z,12.88
2019-04-30T18:47:52.865Z,13.15
2019-04-30T18:50:22.564Z,12.90
2019-04-30T18:52:53.978Z,13.25
2019-04-30T18:55:23.661Z,12.82
2019-04-30T18:57:56.886Z,13.72
2019-04-30T19:00:40.588Z,10.48
2019-04-30T19:03:10.413Z,13.55
2019-04-30T19:05:42.106Z,14.20
2019-04-30T19:08:19.478Z,14.00
2019-04-30T19:11:14.464Z,12.65
2019-04-30T19:14:03.311Z,9.85
2019-04-30T19:16:59.521Z,14.53
2019-04-30T19:19:46.810Z,12.20
2019-04-30T19:22:18.588Z,12.28
2019-04-30T19:24:56.197Z,15.30
2019-04-30T19:27:19.439Z,16.20
2019-04-30T19:29:51.583Z,12.85
2019-04-30T19:32:20.586Z,12.00
2019-04-30T19:34:50.278Z,14.33
2019-04-30T19:37:20.033Z,13.32
2019-04-30T19:39:51.060Z,12.60
2019-04-30T19:42:20.985Z,12.13
2019-04-30T19:44:59.019Z,13.62
2019-04-30T19:47:22.231Z,12.95
2019-04-30T19:49:52.093Z,14.28
2019-04-30T19:52:21.903Z,14.15
2019-04-30T19:54:51.745Z,14.63
2019-04-30T19:57:21.428Z,14.33
2019-04-30T19:59:51.386Z,15.90
2019-04-30T20:02:21.833Z,16.60
2019-04-30T20:04:51.615Z,15.48
2019-04-30T20:07:21.388Z,14.87
2019-04-30T20:10:00.175Z,14.23
2019-04-30T20:12:22.598Z,16.25
2019-04-30T20:14:52.433Z,16.77
2019-04-30T20:17:22.150Z,15.53
2019-04-30T20:19:52.797Z,17.30
2019-04-30T20:22:22.676Z,16.97
2019-04-30T20:24:52.647Z,19.45
2019-04-30T20:27:22.356Z,20.10
2019-04-30T20:29:52.037Z,16.87
2019-04-30T20:32:35.442Z,15.90
2019-04-30T20:34:53.122Z,17.95
2019-04-30T20:37:22.808Z,17.50
2019-04-30T20:40:03.106Z,17.23
2019-04-30T20:42:32.798Z,17.37
2019-04-30T20:45:03.834Z,18.60
2019-04-30T20:47:33.883Z,20.85
2019-04-30T20:50:03.709Z,17.17
2019-04-30T20:52:33.405Z,17.82
2019-04-30T20:55:03.433Z,18.67
2019-04-30T20:57:34.169Z,17.23
2019-04-30T21:00:04.337Z,18.27
2019-04-30T21:02:35.664Z,16.90
2019-04-30T21:05:05.700Z,19.12
2019-04-30T21:07:35.483Z,18.67
2019-04-30T21:10:07.301Z,19.05
2019-04-30T21:12:37.049Z,19.67
2019-04-30T21:15:06.826Z,14.50
2019-04-30T21:17:36.597Z,20.97
2019-04-30T21:20:06.738Z,19.10
2019-04-30T21:22:36.444Z,19.37
2019-04-30T21:25:06.459Z,18.82
2019-04-30T21:27:36.292Z,18.45
2019-04-30T21:30:06.333Z,17.25
2019-04-30T21:32:53.854Z,18.50
2019-04-30T21:35:33.377Z,19.25
2019-04-30T21:38:03.067Z,17.77
2019-04-30T21:40:32.851Z,18.65
2019-04-30T21:43:02.549Z,19.50
2019-04-30T21:45:32.225Z,19.48
2019-04-30T21:48:01.898Z,19.82
2019-04-30T21:50:31.605Z,18.92
2019-04-30T21:53:01.301Z,19.65
2019-04-30T21:55:30.992Z,21.12
2019-04-30T21:58:00.741Z,19.62
2019-04-30T22:00:49.524Z,20.55
2019-04-30T22:03:21.118Z,22.50
2019-04-30T22:05:50.818Z,21.85
2019-04-30T22:08:20.521Z,22.30
2019-04-30T22:10:50.295Z,21.27
2019-04-30T22:13:19.977Z,19.25
2019-04-30T22:15:49.750Z,23.02
2019-04-30T22:18:19.506Z,18.87
2019-04-30T22:20:49.849Z,23.07
2019-04-30T22:23:19.621Z,25.20
2019-04-30T22:25:49.400Z,20.65
2019-04-30T22:28:19.122Z,20.95
2019-04-30T22:30:50.510Z,20.17
2019-04-30T22:33:20.474Z,26.73
2019-04-30T22:36:10.936Z,23.47
2019-04-30T22:38:59.874Z,21.95
2019-04-30T22:41:31.009Z,23.00
2019-04-30T22:44:00.763Z,23.40
2019-04-30T22:46:30.472Z,27.10
2019-04-30T22:49:00.149Z,26.33
2019-04-30T22:51:29.838Z,22.40
2019-04-30T22:53:59.512Z,25.10
2019-04-30T22:56:29.210Z,17.92
2019-04-30T22:58:58.905Z,25.50
2019-04-30T23:01:59.752Z,23.52
2019-04-30T23:04:40.296Z,24.65
2019-04-30T23:07:10.083Z,26.40
2019-04-30T23:09:39.750Z,23.15
2019-04-30T23:12:09.505Z,28.57
2019-04-30T23:14:39.261Z,26.15
2019-04-30T23:17:09.030Z,24.92
2019-04-30T23:19:38.725Z,23.42
2019-04-30T23:22:08.419Z,24.85
2019-04-30T23:24:38.236Z,23.45
2019-04-30T23:27:07.926Z,26.20
2019-04-30T23:29:37.683Z,24.20
2019-04-30T23:32:07.517Z,26.52
2019-04-30T23:34:37.205Z,23.07
2019-04-30T23:37:06.973Z,25.68
2019-04-30T23:39:36.673Z,24.52
2019-04-30T23:42:07.586Z,24.23
2019-04-30T23:44:37.268Z,25.12
2019-04-30T23:47:07.071Z,24.65
2019-04-30T23:49:36.733Z,28.45
2019-04-30T23:52:06.592Z,30.95
2019-04-30T23:54:36.265Z,27.45
2019-04-30T23:57:05.967Z,27.32
2019-04-30T23:59:37.753Z,27.42
